createdAt,value
2023-03-27T00:01:22.763Z,99813.34
2023-03-27T00:03:50.914Z,99821.22
2023-03-27T00:06:23.210Z,99815.97
2023-03-27T00:08:51.418Z,99821.31
2023-03-27T00:11:19.211Z,99822.19
2023-03-27T00:13:50.075Z,99824.03
2023-03-27T00:16:21.998Z,99822.22
2023-03-27T00:18:50.491Z,99819.56
2023-03-27T00:21:17.553Z,99817.03
2023-03-27T00:23:44.944Z,99815.31
2023-03-27T00:26:12.685Z,99804.97
2023-03-27T00:28:39.964Z,99813.78
2023-03-27T00:31:14.499Z,99803.50
2023-03-27T00:33:43.218Z,99814.84
2023-03-27T00:36:10.850Z,99814.00
2023-03-27T00:38:39.873Z,99810.53
2023-03-27T00:41:08.139Z,99803.50
2023-03-27T00:43:36.324Z,99813.28
2023-03-27T00:46:15.664Z,99809.09
2023-03-27T00:48:47.380Z,99813.63
2023-03-27T00:51:16.789Z,99804.94
2023-03-27T00:53:44.562Z,99807.66
2023-03-27T00:56:11.676Z,99804.22
2023-03-27T00:58:57.070Z,99804.16
2023-03-27T01:01:27.336Z,99797.22
2023-03-27T01:04:00.151Z,99795.56
2023-03-27T01:06:28.803Z,99799.13
2023-03-27T01:08:56.530Z,99794.84
2023-03-27T01:11:53.062Z,99791.53
2023-03-27T01:14:23.649Z,99802.81
2023-03-27T01:17:07.715Z,99804.59
2023-03-27T01:20:07.306Z,99805.50
2023-03-27T01:22:46.250Z,99801.22
2023-03-27T01:25:47.943Z,99798.63
2023-03-27T01:28:30.074Z,99804.84
2023-03-27T01:31:21.304Z,99798.09
2023-03-27T01:34:27.334Z,99793.00
2023-03-27T01:37:09.780Z,99786.13
2023-03-27T01:39:55.185Z,99786.22
2023-03-27T01:42:41.113Z,99785.44
2023-03-27T01:45:24.492Z,99773.41
2023-03-27T01:48:10.798Z,99764.72
2023-03-27T01:50:59.537Z,99768.22
2023-03-27T01:53:33.263Z,99762.19
2023-03-27T01:56:31.440Z,99774.34
2023-03-27T01:59:08.997Z,99767.44
2023-03-27T02:01:39.503Z,99770.84
2023-03-27T02:04:12.995Z,99769.94
2023-03-27T02:06:48.622Z,99773.25
2023-03-27T02:09:20.578Z,99766.00
2023-03-27T02:11:57.045Z,99758.78
2023-03-27T02:14:28.698Z,99745.63
2023-03-27T02:17:02.268Z,99741.25
2023-03-27T02:19:35.911Z,99740.34
2023-03-27T02:22:03.690Z,99739.59
2023-03-27T02:24:30.963Z,99746.72
2023-03-27T02:27:18.175Z,99746.88
2023-03-27T02:29:56.159Z,99759.19
2023-03-27T02:33:00.376Z,99753.06
2023-03-27T02:35:39.553Z,99741.66
2023-03-27T02:38:38.743Z,99744.19
2023-03-27T02:41:35.562Z,99759.97
2023-03-27T02:44:46.263Z,99755.41
2023-03-27T02:47:20.434Z,99753.50
2023-03-27T02:49:58.810Z,99742.88
2023-03-27T02:52:31.980Z,99742.84
2023-03-27T02:55:06.587Z,99754.19
2023-03-27T02:57:40.382Z,99749.03
2023-03-27T03:00:25.569Z,99743.06
2023-03-27T03:03:09.266Z,99744.09
2023-03-27T03:05:39.703Z,99745.00
2023-03-27T03:08:10.336Z,99742.44
2023-03-27T03:10:44.981Z,99741.56
2023-03-27T03:13:18.382Z,99730.25
2023-03-27T03:15:46.640Z,99741.63
2023-03-27T03:18:15.085Z,99739.88
2023-03-27T03:20:42.836Z,99742.63
2023-03-27T03:23:10.456Z,99738.31
2023-03-27T03:25:38.036Z,99735.72
2023-03-27T03:28:08.474Z,99729.66
2023-03-27T03:30:37.579Z,99734.78
2023-03-27T03:33:04.833Z,99749.69
2023-03-27T03:35:31.841Z,99729.69
2023-03-27T03:37:59.537Z,99730.53
2023-03-27T03:40:29.684Z,99743.56
2023-03-27T03:42:59.950Z,99737.59
2023-03-27T03:45:27.094Z,99749.69
2023-03-27T03:47:55.043Z,99750.50
2023-03-27T03:50:22.111Z,99742.75
2023-03-27T03:52:51.042Z,99753.22
2023-03-27T03:55:18.143Z,99756.69
2023-03-27T03:57:47.756Z,99745.41
2023-03-27T04:00:18.893Z,99743.72
2023-03-27T04:02:49.546Z,99752.28
2023-03-27T04:08:20.536Z,99738.16
2023-03-27T04:10:48.406Z,99737.88
2023-03-27T04:13:15.670Z,99745.47
2023-03-27T04:15:45.433Z,99739.31
2023-03-27T04:18:15.021Z,99741.91
2023-03-27T04:20:43.088Z,99742.72
2023-03-27T04:23:10.219Z,99741.75
2023-03-27T04:25:38.282Z,99745.97
2023-03-27T04:28:05.715Z,99738.84
2023-03-27T04:30:37.580Z,99738.66
2023-03-27T04:33:08.958Z,99736.50
2023-03-27T04:35:41.036Z,99741.59
2023-03-27T04:38:08.810Z,99746.66
2023-03-27T04:40:38.801Z,99729.56
2023-03-27T04:43:05.893Z,99740.16
2023-03-27T04:45:33.823Z,99730.75
2023-03-27T04:48:04.039Z,99732.16
2023-03-27T04:50:44.539Z,99723.63
2023-03-27T04:53:12.461Z,99732.38
2023-03-27T04:55:40.836Z,99736.97
2023-03-27T04:58:08.402Z,99734.59
2023-03-27T05:00:36.456Z,99740.72
2023-03-27T05:03:03.888Z,99738.16
2023-03-27T05:05:32.292Z,99731.22
2023-03-27T05:07:59.495Z,99722.41
2023-03-27T05:10:28.665Z,99727.53
2023-03-27T05:12:58.422Z,99732.63
2023-03-27T05:15:25.928Z,99727.13
2023-03-27T05:17:55.521Z,99731.28
2023-03-27T05:20:24.694Z,99723.06
2023-03-27T05:22:56.444Z,99716.53
2023-03-27T05:25:24.953Z,99710.22
2023-03-27T05:27:54.414Z,99709.13
2023-03-27T05:30:29.237Z,99716.63
2023-03-27T05:33:00.818Z,99717.34
2023-03-27T05:35:28.761Z,99712.69
2023-03-27T05:37:57.757Z,99716.75
2023-03-27T05:40:26.995Z,99712.22
2023-03-27T05:42:57.651Z,99705.75
2023-03-27T05:45:28.177Z,99715.94
2023-03-27T05:48:00.373Z,99710.34
2023-03-27T05:50:30.589Z,99713.44
2023-03-27T05:52:59.470Z,99715.72
2023-03-27T05:55:27.987Z,99714.28
2023-03-27T05:57:55.203Z,99706.72
2023-03-27T06:00:27.757Z,99718.53
2023-03-27T06:03:00.091Z,99707.25
2023-03-27T06:05:29.909Z,99693.69
2023-03-27T06:08:00.244Z,99707.69
2023-03-27T06:10:29.431Z,99699.19
2023-03-27T06:13:05.258Z,99684.69
2023-03-27T06:15:33.928Z,99696.34
2023-03-27T06:18:01.219Z,99690.78
2023-03-27T06:20:29.242Z,99687.53
2023-03-27T06:22:59.764Z,99687.41
2023-03-27T06:25:31.393Z,99689.50
2023-03-27T06:27:58.865Z,99678.50
2023-03-27T06:30:27.939Z,99680.56
2023-03-27T06:32:58.582Z,99672.03
2023-03-27T06:35:31.958Z,99666.31
2023-03-27T06:38:00.080Z,99674.16
2023-03-27T06:40:29.189Z,99667.09
2023-03-27T06:43:04.483Z,99668.75
2023-03-27T06:45:34.778Z,99653.78
2023-03-27T06:48:18.005Z,99655.41
2023-03-27T06:50:51.238Z,99649.56
2023-03-27T06:55:52.114Z,99636.94
2023-03-27T06:58:19.766Z,99639.84
2023-03-27T07:00:48.963Z,99638.34
2023-03-27T07:03:16.353Z,99638.69
2023-03-27T07:05:47.050Z,99631.16
2023-03-27T07:10:59.778Z,99628.94
2023-03-27T07:13:35.537Z,99629.25
2023-03-27T07:16:18.682Z,99627.44
2023-03-27T07:18:46.574Z,99626.19
2023-03-27T07:21:15.502Z,99627.47
2023-03-27T07:23:43.229Z,99617.16
2023-03-27T07:26:10.851Z,99620.81
2023-03-27T07:28:38.920Z,99615.47
2023-03-27T07:31:16.754Z,99615.56
2023-03-27T07:34:05.293Z,99617.22
2023-03-27T07:36:33.948Z,99602.59
2023-03-27T07:39:01.727Z,99604.84
2023-03-27T07:41:33.813Z,99602.88
2023-03-27T07:44:02.166Z,99592.00
2023-03-27T07:46:33.152Z,99584.66
2023-03-27T07:49:05.392Z,99578.25
2023-03-27T07:51:33.402Z,99569.78
2023-03-27T07:54:04.286Z,99572.66
2023-03-27T07:56:34.057Z,99575.53
2023-03-27T07:59:08.419Z,99559.81
2023-03-27T08:01:46.651Z,99564.81
2023-03-27T08:04:13.819Z,99567.22
2023-03-27T08:06:41.346Z,99563.19
2023-03-27T08:09:08.649Z,99555.81
2023-03-27T08:11:46.184Z,99563.66
2023-03-27T08:14:13.554Z,99556.66
2023-03-27T08:16:41.275Z,99548.72
2023-03-27T08:19:11.443Z,99549.63
2023-03-27T08:21:40.229Z,99549.03
2023-03-27T08:24:10.325Z,99547.34
2023-03-27T08:26:38.248Z,99542.28
2023-03-27T08:29:06.063Z,99548.50
2023-03-27T08:31:36.556Z,99535.69
2023-03-27T08:34:05.462Z,99528.09
2023-03-27T08:36:35.635Z,99513.78
2023-03-27T08:39:08.618Z,99525.50
2023-03-27T08:41:59.249Z,99527.47
2023-03-27T08:44:28.759Z,99516.25
2023-03-27T08:47:13.427Z,99507.09
2023-03-27T08:49:58.036Z,99502.88
2023-03-27T08:52:31.625Z,99495.41
2023-03-27T08:55:05.586Z,99494.97
2023-03-27T08:57:39.302Z,99494.47
2023-03-27T09:00:21.307Z,99487.34
2023-03-27T09:03:07.614Z,99489.78
2023-03-27T09:06:06.627Z,99489.94
2023-03-27T09:08:55.693Z,99492.88
2023-03-27T09:11:44.639Z,99486.19
2023-03-27T09:14:37.381Z,99485.50
2023-03-27T09:17:16.208Z,99476.09
2023-03-27T09:20:20.294Z,99476.06
2023-03-27T09:22:55.416Z,99467.09
2023-03-27T09:25:36.051Z,99463.19
2023-03-27T09:28:04.410Z,99464.03
2023-03-27T09:30:33.965Z,99452.13
2023-03-27T09:33:06.113Z,99449.94
2023-03-27T09:35:35.775Z,99442.94
2023-03-27T09:38:10.446Z,99441.28
2023-03-27T09:40:49.142Z,99437.41
2023-03-27T09:43:26.640Z,99433.78
2023-03-27T09:45:56.605Z,99425.53
2023-03-27T09:48:34.890Z,99412.81
2023-03-27T09:51:02.668Z,99420.00
2023-03-27T09:53:29.849Z,99422.38
2023-03-27T09:56:23.245Z,99412.06
2023-03-27T09:58:51.360Z,99405.75
2023-03-27T10:01:32.763Z,99397.25
2023-03-27T10:04:00.804Z,99388.91
2023-03-27T10:06:36.498Z,99385.59
2023-03-27T10:09:34.334Z,99375.59
2023-03-27T10:12:08.063Z,99384.09
2023-03-27T10:14:37.977Z,99363.38
2023-03-27T10:17:14.184Z,99354.94
2023-03-27T10:19:42.328Z,99372.53
2023-03-27T10:22:21.827Z,99369.41
2023-03-27T10:24:53.176Z,99363.47
2023-03-27T10:27:26.319Z,99371.69
2023-03-27T10:29:53.504Z,99372.31
2023-03-27T10:32:45.278Z,99364.44
2023-03-27T10:35:32.710Z,99369.00
2023-03-27T10:38:03.586Z,99370.81
2023-03-27T10:40:34.951Z,99348.84
2023-03-27T10:43:26.769Z,99349.13
2023-03-27T10:46:11.863Z,99333.25
2023-03-27T10:49:13.770Z,99321.22
2023-03-27T10:51:48.450Z,99327.25
2023-03-27T10:54:38.857Z,99318.66
2023-03-27T10:57:14.360Z,99318.31
2023-03-27T10:59:55.999Z,99293.66
2023-03-27T11:02:48.130Z,99293.53
2023-03-27T11:05:31.256Z,99282.16
2023-03-27T11:08:28.353Z,99288.06
2023-03-27T11:11:00.016Z,99275.84
2023-03-27T11:13:38.280Z,99274.75
2023-03-27T11:16:23.710Z,99277.41
2023-03-27T11:19:22.660Z,99253.38
2023-03-27T11:21:54.790Z,99256.09
2023-03-27T11:24:28.781Z,99244.41
2023-03-27T11:27:10.037Z,99245.72
2023-03-27T11:29:45.471Z,99247.66
2023-03-27T11:35:28.733Z,99245.50
2023-03-27T11:38:02.714Z,99243.38
2023-03-27T11:40:37.720Z,99241.13
2023-03-27T11:43:05.870Z,99228.94
2023-03-27T11:45:48.972Z,99227.50
2023-03-27T11:48:42.351Z,99235.16
2023-03-27T11:54:15.967Z,99225.44
2023-03-27T11:56:54.882Z,99219.91
2023-03-27T11:59:51.445Z,99230.66
2023-03-27T12:03:07.055Z,99223.50
2023-03-27T12:06:05.628Z,99216.84
2023-03-27T12:08:45.939Z,99219.44
2023-03-27T12:11:13.613Z,99224.25
2023-03-27T12:14:05.504Z,99213.63
2023-03-27T12:19:29.695Z,99212.38
2023-03-27T12:22:31.712Z,99196.25
2023-03-27T12:25:06.298Z,99206.47
2023-03-27T12:27:48.837Z,99207.56
2023-03-27T12:30:50.009Z,99212.69
2023-03-27T12:33:37.971Z,99207.16
2023-03-27T12:36:11.928Z,99206.72
2023-03-27T12:38:42.596Z,99198.28
2023-03-27T12:41:13.096Z,99200.53
2023-03-27T12:43:46.011Z,99197.13
2023-03-27T12:46:25.940Z,99206.88
2023-03-27T12:49:13.491Z,99203.47
2023-03-27T12:52:15.221Z,99201.75
2023-03-27T12:55:26.997Z,99191.47
2023-03-27T12:57:54.708Z,99195.41
2023-03-27T13:00:25.810Z,99196.13
2023-03-27T13:03:03.660Z,99200.38
2023-03-27T13:05:36.790Z,99175.34
2023-03-27T13:08:42.864Z,99193.28
2023-03-27T13:11:44.051Z,99182.97
2023-03-27T13:14:28.198Z,99187.19
2023-03-27T13:17:44.615Z,99174.47
2023-03-27T13:20:58.587Z,99177.59
2023-03-27T13:24:08.777Z,99178.13
2023-03-27T13:27:18.622Z,99166.97
2023-03-27T13:29:53.442Z,99177.00
2023-03-27T13:32:36.999Z,99164.56
2023-03-27T13:35:20.627Z,99162.59
2023-03-27T13:37:58.607Z,99158.34
2023-03-27T13:40:31.891Z,99158.22
2023-03-27T13:43:26.366Z,99152.13
2023-03-27T13:46:05.920Z,99140.25
2023-03-27T13:48:46.660Z,99142.38
2023-03-27T13:51:34.346Z,99135.75
2023-03-27T13:54:52.484Z,99131.06
2023-03-27T13:57:44.825Z,99124.16
2023-03-27T14:00:33.739Z,99119.34
2023-03-27T14:03:57.285Z,99118.06
2023-03-27T14:06:44.242Z,99115.69
2023-03-27T14:10:09.005Z,99109.03
2023-03-27T14:16:17.131Z,99091.47
2023-03-27T14:18:46.897Z,99095.66
2023-03-27T14:21:35.709Z,99089.13
2023-03-27T14:24:20.329Z,99109.19
2023-03-27T14:26:48.808Z,99096.94
2023-03-27T14:29:18.745Z,99097.75
2023-03-27T14:31:50.970Z,99108.66
2023-03-27T14:34:31.771Z,99108.78
2023-03-27T14:37:29.165Z,99100.88
2023-03-27T14:39:58.205Z,99107.91
2023-03-27T14:42:40.509Z,99103.34
2023-03-27T14:45:18.109Z,99107.28
2023-03-27T14:47:49.930Z,99096.38
2023-03-27T14:50:17.741Z,99099.34
2023-03-27T14:52:45.351Z,99102.59
2023-03-27T14:55:19.845Z,99094.91
2023-03-27T14:57:59.717Z,99076.72
2023-03-27T15:00:31.993Z,99095.03
2023-03-27T15:03:07.280Z,99100.91
2023-03-27T15:05:34.383Z,99084.50
2023-03-27T15:08:04.981Z,99082.38
2023-03-27T15:10:32.824Z,99086.81
2023-03-27T15:13:00.510Z,99072.53
2023-03-27T15:15:42.900Z,99080.25
2023-03-27T15:18:15.458Z,99064.44
2023-03-27T15:20:43.746Z,99071.06
2023-03-27T15:23:12.232Z,99078.63
2023-03-27T15:26:15.288Z,99078.56
2023-03-27T15:28:53.531Z,99075.53
2023-03-27T15:31:21.204Z,99088.34
2023-03-27T15:34:09.920Z,99076.81
2023-03-27T15:36:43.211Z,99085.47
2023-03-27T15:39:21.327Z,99089.38
2023-03-27T15:41:53.778Z,99087.84
2023-03-27T15:44:24.324Z,99087.72
2023-03-27T15:46:54.785Z,99084.00
2023-03-27T15:49:38.462Z,99079.38
2023-03-27T15:52:31.703Z,99091.16
2023-03-27T15:55:00.025Z,99086.53
2023-03-27T15:57:32.377Z,99096.25
2023-03-27T16:00:11.164Z,99081.19
2023-03-27T16:02:38.519Z,99080.59
2023-03-27T16:05:12.067Z,99075.34
2023-03-27T16:07:48.645Z,99079.84
2023-03-27T16:10:38.084Z,99077.75
2023-03-27T16:13:07.627Z,99077.34
2023-03-27T16:15:45.264Z,99085.34
2023-03-27T16:18:32.512Z,99079.88
2023-03-27T16:21:08.494Z,99072.69
2023-03-27T16:23:35.808Z,99078.25
2023-03-27T16:26:05.414Z,99064.16
2023-03-27T16:28:33.340Z,99068.41
2023-03-27T16:31:17.462Z,99080.25
2023-03-27T16:33:46.214Z,99087.50
2023-03-27T16:36:24.403Z,99078.03
2023-03-27T16:38:52.099Z,99078.50
2023-03-27T16:41:23.962Z,99075.19
2023-03-27T16:43:51.348Z,99069.25
2023-03-27T16:46:24.382Z,99070.69
2023-03-27T16:48:52.935Z,99071.13
2023-03-27T16:51:24.633Z,99082.94
2023-03-27T16:53:53.026Z,99074.34
2023-03-27T16:56:21.671Z,99077.22
2023-03-27T16:58:49.428Z,99070.88
2023-03-27T17:01:24.476Z,99078.22
2023-03-27T17:03:51.787Z,99093.72
2023-03-27T17:06:22.903Z,99098.41
2023-03-27T17:08:55.472Z,99106.75
2023-03-27T17:11:23.700Z,99091.41
2023-03-27T17:13:54.247Z,99092.47
2023-03-27T17:16:30.095Z,99099.28
2023-03-27T17:18:57.592Z,99121.47
2023-03-27T17:21:26.900Z,99105.06
2023-03-27T17:23:54.413Z,99115.94
2023-03-27T17:26:28.652Z,99121.13
2023-03-27T17:28:56.420Z,99131.78
2023-03-27T17:31:24.194Z,99129.44
2023-03-27T17:33:51.493Z,99121.88
2023-03-27T17:36:29.795Z,99141.81
2023-03-27T17:39:08.113Z,99141.06
2023-03-27T17:41:35.705Z,99144.03
2023-03-27T17:44:03.093Z,99132.41
2023-03-27T17:46:31.082Z,99142.03
2023-03-27T17:48:58.571Z,99142.31
2023-03-27T17:51:26.273Z,99146.25
2023-03-27T17:53:53.662Z,99140.31
2023-03-27T17:56:21.979Z,99162.13
2023-03-27T17:58:50.292Z,99153.47
2023-03-27T18:01:20.616Z,99154.22
2023-03-27T18:03:48.589Z,99151.91
2023-03-27T18:06:18.160Z,99141.34
2023-03-27T18:08:46.225Z,99142.31
2023-03-27T18:11:15.744Z,99149.56
2023-03-27T18:13:42.874Z,99128.13
2023-03-27T18:16:13.544Z,99136.00
2023-03-27T18:18:40.801Z,99120.34
2023-03-27T18:21:08.925Z,99125.69
2023-03-27T18:23:45.973Z,99119.47
2023-03-27T18:26:14.765Z,99127.25
2023-03-27T18:28:41.783Z,99111.06
2023-03-27T18:31:11.939Z,99112.75
2023-03-27T18:33:39.609Z,99108.41
2023-03-27T18:36:10.936Z,99116.38
2023-03-27T18:38:40.434Z,99106.25
2023-03-27T18:41:08.942Z,99129.69
2023-03-27T18:43:36.717Z,99119.25
2023-03-27T18:46:06.821Z,99120.97
2023-03-27T18:48:35.191Z,99107.09
2023-03-27T18:51:05.485Z,99120.72
2023-03-27T18:53:32.955Z,99118.38
2023-03-27T18:56:00.890Z,99107.09
2023-03-27T18:58:29.413Z,99103.78
2023-03-27T19:00:57.881Z,99109.66
2023-03-27T19:03:30.563Z,99106.34
2023-03-27T19:06:01.929Z,99093.91
2023-03-27T19:08:29.723Z,99095.94
2023-03-27T19:10:57.994Z,99065.81
2023-03-27T19:13:25.801Z,99082.28
2023-03-27T19:15:54.953Z,99082.28
2023-03-27T19:18:22.167Z,99070.91
2023-03-27T19:20:50.233Z,99074.31
2023-03-27T19:23:18.489Z,99069.97
2023-03-27T19:25:48.537Z,99083.34
2023-03-27T19:28:15.831Z,99077.19
2023-03-27T19:30:43.410Z,99073.03
2023-03-27T19:33:11.683Z,99071.97
2023-03-27T19:35:56.269Z,99078.03
2023-03-27T19:38:28.894Z,99074.72
2023-03-27T19:40:57.828Z,99064.41
2023-03-27T19:43:25.190Z,99053.63
2023-03-27T19:46:14.984Z,99030.34
2023-03-27T19:51:30.873Z,99043.06
2023-03-27T19:53:57.985Z,99036.16
2023-03-27T19:56:28.261Z,99043.31
2023-03-27T19:58:56.240Z,99032.00
2023-03-27T20:01:28.476Z,99030.72
2023-03-27T20:03:57.370Z,99038.88
2023-03-27T20:06:27.164Z,99033.09
2023-03-27T20:08:54.558Z,99035.50
2023-03-27T20:11:23.418Z,99036.56
2023-03-27T20:14:03.868Z,99024.56
2023-03-27T20:16:32.452Z,99025.81
2023-03-27T20:22:05.316Z,99033.97
2023-03-27T20:24:32.477Z,99046.78
2023-03-27T20:27:03.356Z,99045.94
2023-03-27T20:29:30.705Z,99044.59
2023-03-27T20:31:58.304Z,99048.66
2023-03-27T20:34:25.501Z,99046.72
2023-03-27T20:36:53.341Z,99047.28
2023-03-27T20:39:21.380Z,99044.41
2023-03-27T20:41:49.173Z,99049.03
2023-03-27T20:44:16.499Z,99042.41
2023-03-27T20:46:51.310Z,99038.84
2023-03-27T20:51:59.951Z,99016.84
2023-03-27T20:54:27.519Z,99012.16
2023-03-27T20:56:55.060Z,98993.81
2023-03-27T20:59:23.082Z,98995.88
2023-03-27T21:01:57.669Z,98988.16
2023-03-27T21:04:26.582Z,98959.75
2023-03-27T21:06:54.991Z,98962.06
2023-03-27T21:09:24.355Z,98960.25
2023-03-27T21:11:51.707Z,98929.06
2023-03-27T21:14:22.353Z,98929.53
2023-03-27T21:16:49.840Z,98931.91
2023-03-27T21:19:17.755Z,98926.47
2023-03-27T21:21:45.287Z,98915.78
2023-03-27T21:24:13.399Z,98903.41
2023-03-27T21:26:41.620Z,98905.97
2023-03-27T21:29:11.988Z,98894.50
2023-03-27T21:31:40.604Z,98896.31
2023-03-27T21:34:09.104Z,98875.97
2023-03-27T21:36:38.089Z,98879.31
2023-03-27T21:39:05.581Z,98877.44
2023-03-27T21:41:33.170Z,98855.94
2023-03-27T21:44:00.567Z,98856.63
2023-03-27T21:46:28.120Z,98864.28
2023-03-27T21:48:56.272Z,98852.59
2023-03-27T21:51:24.896Z,98854.38
2023-03-27T21:53:53.281Z,98846.34
2023-03-27T21:56:20.840Z,98847.03
2023-03-27T21:58:48.148Z,98834.53
2023-03-27T22:01:15.716Z,98838.88
2023-03-27T22:03:42.726Z,98834.84
2023-03-27T22:06:12.965Z,98828.50
2023-03-27T22:08:43.120Z,98813.38
2023-03-27T22:11:12.472Z,98806.94
2023-03-27T22:13:40.378Z,98813.22
2023-03-27T22:16:13.608Z,98791.44
2023-03-27T22:18:40.875Z,98801.19
2023-03-27T22:21:20.208Z,98798.63
2023-03-27T22:23:49.222Z,98799.75
2023-03-27T22:26:18.144Z,98795.50
2023-03-27T22:28:45.345Z,98790.59
2023-03-27T22:31:12.919Z,98787.19
2023-03-27T22:33:41.131Z,98789.94
2023-03-27T22:36:11.180Z,98795.22
2023-03-27T22:38:42.427Z,98798.78
2023-03-27T22:41:12.195Z,98791.16
2023-03-27T22:43:39.703Z,98787.75
2023-03-27T22:46:16.920Z,98789.53
2023-03-27T22:48:44.628Z,98783.66
2023-03-27T22:51:12.899Z,98795.84
2023-03-27T22:53:41.039Z,98790.75
2023-03-27T22:56:08.954Z,98791.81
2023-03-27T22:58:36.180Z,98783.28
2023-03-27T23:01:05.402Z,98776.38
2023-03-27T23:03:33.437Z,98792.34
2023-03-27T23:06:01.273Z,98787.03
2023-03-27T23:08:29.219Z,98782.66
2023-03-27T23:11:04.956Z,98775.50
2023-03-27T23:13:34.365Z,98766.97
2023-03-27T23:16:02.137Z,98763.50
2023-03-27T23:18:29.389Z,98755.81
2023-03-27T23:20:59.550Z,98767.06
2023-03-27T23:23:28.002Z,98761.09
2023-03-27T23:25:55.995Z,98754.28
2023-03-27T23:28:23.691Z,98745.88
2023-03-27T23:31:03.069Z,98757.22
2023-03-27T23:33:35.420Z,98741.63
2023-03-27T23:36:18.614Z,98740.69
2023-03-27T23:38:45.802Z,98742.28
2023-03-27T23:41:15.471Z,98736.06
2023-03-27T23:43:42.815Z,98722.53
2023-03-27T23:46:11.142Z,98732.75
2023-03-27T23:48:40.392Z,98723.97
2023-03-27T23:51:08.833Z,98735.03
2023-03-27T23:53:36.803Z,98727.16
2023-03-27T23:56:04.624Z,98722.09
2023-03-27T23:58:34.636Z,98711.44
